sensor_id;sensor_type;location;lat;lon;timestamp;P1;durP1;ratioP1;P2;durP2;ratioP2
44126;SDS011;29786;50.798;7.302;2023-11-21T00:00:50;5.4;;;3.9;;
44126;SDS011;29786;50.798;7.302;2023-11-21T00:01:50;5.8;;;4.2;;
44126;SDS011;29786;50.798;7.302;2023-11-21T00:02:50;8.9;;;4.5;;
44126;SDS011;29786;50.798;7.302;2023-11-21T00:03:50;4.9;;;4.2;;
44126;SDS011;29786;50.798;7.302;2023-11-21T00:04:50;5.8;;;3.9;;
44126;SDS011;29786;50.798;7.302;2023-11-21T00:05:50;8.9;;;3.8;;
44126;SDS011;29786;50.798;7.302;2023-11-21T00:06:51;5.4;;;3.5;;
44126;SDS011;29786;50.798;7.302;2023-11-21T00:07:50;6.1;;;3.9;;
44126;SDS011;29786;50.798;7.302;2023-11-21T00:08:50;4.9;;;3.9;;
44126;SDS011;29786;50.798;7.302;2023-11-21T00:09:50;6.1;;;4.2;;
44126;SDS011;29786;50.798;7.302;2023-11-21T00:10:50;5.3;;;3.9;;
44126;SDS011;29786;50.798;7.302;2023-11-21T00:11:50;4.8;;;3.5;;
44126;SDS011;29786;50.798;7.302;2023-11-21T00:12:50;5;;;3.4;;
44126;SDS011;29786;50.798;7.302;2023-11-21T00:13:50;5.4;;;3.7;;
44126;SDS011;29786;50.798;7.302;2023-11-21T00:14:50;5.4;;;3.4;;
44126;SDS011;29786;50.798;7.302;2023-11-21T00:15:50;6.1;;;3.8;;
44126;SDS011;29786;50.798;7.302;2023-11-21T00:16:50;5.2;;;3.6;;
44126;SDS011;29786;50.798;7.302;2023-11-21T00:17:50;5.1;;;3.4;;
44126;SDS011;29786;50.798;7.302;2023-11-21T00:18:50;6;;;3.2;;
44126;SDS011;29786;50.798;7.302;2023-11-21T00:19:50;6.5;;;3.7;;
44126;SDS011;29786;50.798;7.302;2023-11-21T00:20:50;4.7;;;3.4;;
44126;SDS011;29786;50.798;7.302;2023-11-21T00:21:50;4.6;;;3.3;;
44126;SDS011;29786;50.798;7.302;2023-11-21T00:22:50;7;;;3.6;;
44126;SDS011;29786;50.798;7.302;2023-11-21T00:23:50;5.4;;;3.6;;
44126;SDS011;29786;50.798;7.302;2023-11-21T00:24:50;5.7;;;3.6;;
44126;SDS011;29786;50.798;7.302;2023-11-21T00:25:50;5.5;;;3.5;;
44126;SDS011;29786;50.798;7.302;2023-11-21T00:26:50;4.4;;;3.5;;
44126;SDS011;29786;50.798;7.302;2023-11-21T00:27:50;4.3;;;3.5;;
44126;SDS011;29786;50.798;7.302;2023-11-21T00:28:50;10.1;;;3.8;;
44126;SDS011;29786;50.798;7.302;2023-11-21T00:29:50;4.9;;;3.1;;
44126;SDS011;29786;50.798;7.302;2023-11-21T00:30:50;6.1;;;3.7;;
44126;SDS011;29786;50.798;7.302;2023-11-21T00:31:50;4.7;;;3.8;;
44126;SDS011;29786;50.798;7.302;2023-11-21T00:32:50;6.5;;;3.4;;
44126;SDS011;29786;50.798;7.302;2023-11-21T00:33:50;5.7;;;3.8;;
44126;SDS011;29786;50.798;7.302;2023-11-21T00:34:50;4.6;;;3.5;;
44126;SDS011;29786;50.798;7.302;2023-11-21T00:35:50;5.7;;;3.8;;
44126;SDS011;29786;50.798;7.302;2023-11-21T00:36:50;4.9;;;3.6;;
44126;SDS011;29786;50.798;7.302;2023-11-21T00:37:50;5.7;;;3.7;;
44126;SDS011;29786;50.798;7.302;2023-11-21T00:38:50;6;;;3.7;;
44126;SDS011;29786;50.798;7.302;2023-11-21T00:39:50;5.3;;;3.9;;
44126;SDS011;29786;50.798;7.302;2023-11-21T00:40:50;9.7;;;4.1;;
44126;SDS011;29786;50.798;7.302;2023-11-21T00:41:50;4.7;;;3.6;;
44126;SDS011;29786;50.798;7.302;2023-11-21T00:42:50;6;;;3.4;;
44126;SDS011;29786;50.798;7.302;2023-11-21T00:43:50;5;;;3.8;;
44126;SDS011;29786;50.798;7.302;2023-11-21T00:44:50;4.8;;;3.5;;
44126;SDS011;29786;50.798;7.302;2023-11-21T00:45:50;4.4;;;3.4;;
44126;SDS011;29786;50.798;7.302;2023-11-21T00:46:50;5.7;;;3.3;;
44126;SDS011;29786;50.798;7.302;2023-11-21T00:47:50;4.3;;;3.5;;
44126;SDS011;29786;50.798;7.302;2023-11-21T00:48:50;5.8;;;3.8;;
44126;SDS011;29786;50.798;7.302;2023-11-21T00:49:50;7.5;;;4.3;;
44126;SDS011;29786;50.798;7.302;2023-11-21T00:50:50;5.4;;;3.9;;
44126;SDS011;29786;50.798;7.302;2023-11-21T00:51:50;5.5;;;4;;
44126;SDS011;29786;50.798;7.302;2023-11-21T00:52:50;5.7;;;4.3;;
44126;SDS011;29786;50.798;7.302;2023-11-21T00:53:50;6.1;;;4.1;;
44126;SDS011;29786;50.798;7.302;2023-11-21T00:54:50;6.5;;;4.3;;
44126;SDS011;29786;50.798;7.302;2023-11-21T00:55:50;7;;;4.6;;
44126;SDS011;29786;50.798;7.302;2023-11-21T00:56:50;7.6;;;4.2;;
44126;SDS011;29786;50.798;7.302;2023-11-21T00:57:50;6.7;;;4.6;;
44126;SDS011;29786;50.798;7.302;2023-11-21T00:58:50;6.8;;;4.1;;
44126;SDS011;29786;50.798;7.302;2023-11-21T00:59:50;6.7;;;4.3;;
44126;SDS011;29786;50.798;7.302;2023-11-21T01:00:50;5.1;;;4.4;;
44126;SDS011;29786;50.798;7.302;2023-11-21T01:01:50;7.2;;;4.2;;
44126;SDS011;29786;50.798;7.302;2023-11-21T01:02:50;5.8;;;4.4;;
44126;SDS011;29786;50.798;7.302;2023-11-21T01:03:50;6.9;;;4.5;;
44126;SDS011;29786;50.798;7.302;2023-11-21T01:04:50;7.7;;;4.7;;
44126;SDS011;29786;50.798;7.302;2023-11-21T01:05:50;5;;;4.4;;
44126;SDS011;29786;50.798;7.302;2023-11-21T01:06:50;6;;;4.5;;
44126;SDS011;29786;50.798;7.302;2023-11-21T01:07:50;6.5;;;5;;
44126;SDS011;29786;50.798;7.302;2023-11-21T01:08:50;7.1;;;4.8;;
44126;SDS011;29786;50.798;7.302;2023-11-21T01:09:50;5.7;;;4.4;;
44126;SDS011;29786;50.798;7.302;2023-11-21T01:10:50;6.4;;;3.9;;
44126;SDS011;29786;50.798;7.302;2023-11-21T01:11:50;6.2;;;4.2;;
44126;SDS011;29786;50.798;7.302;2023-11-21T01:12:50;5.8;;;4.5;;
44126;SDS011;29786;50.798;7.302;2023-11-21T01:13:50;8.1;;;4.6;;
44126;SDS011;29786;50.798;7.302;2023-11-21T01:14:50;5.1;;;4;;
44126;SDS011;29786;50.798;7.302;2023-11-21T01:15:50;5.8;;;4.4;;
44126;SDS011;29786;50.798;7.302;2023-11-21T01:16:50;6.6;;;4.9;;
44126;SDS011;29786;50.798;7.302;2023-11-21T01:17:50;6.6;;;4;;
44126;SDS011;29786;50.798;7.302;2023-11-21T01:18:50;5.9;;;4.7;;
44126;SDS011;29786;50.798;7.302;2023-11-21T01:19:50;5.3;;;4.3;;
44126;SDS011;29786;50.798;7.302;2023-11-21T01:20:50;5.8;;;4.6;;
44126;SDS011;29786;50.798;7.302;2023-11-21T01:21:50;7.3;;;5.4;;
44126;SDS011;29786;50.798;7.302;2023-11-21T01:22:50;7.9;;;4.8;;
44126;SDS011;29786;50.798;7.302;2023-11-21T01:23:50;7.3;;;4.9;;
44126;SDS011;29786;50.798;7.302;2023-11-21T01:24:50;7.8;;;5.1;;
44126;SDS011;29786;50.798;7.302;2023-11-21T01:25:50;7.1;;;5;;
44126;SDS011;29786;50.798;7.302;2023-11-21T01:26:50;6.8;;;4.9;;
44126;SDS011;29786;50.798;7.302;2023-11-21T01:27:50;7.2;;;5;;
44126;SDS011;29786;50.798;7.302;2023-11-21T01:28:50;7.7;;;5;;
44126;SDS011;29786;50.798;7.302;2023-11-21T01:29:50;7.4;;;5.3;;
44126;SDS011;29786;50.798;7.302;2023-11-21T01:30:50;7.2;;;4.5;;
44126;SDS011;29786;50.798;7.302;2023-11-21T01:31:50;6.5;;;4.8;;
44126;SDS011;29786;50.798;7.302;2023-11-21T01:32:50;6.4;;;4.5;;
44126;SDS011;29786;50.798;7.302;2023-11-21T01:33:50;6;;;4.4;;
44126;SDS011;29786;50.798;7.302;2023-11-21T01:34:50;6.2;;;4.7;;
44126;SDS011;29786;50.798;7.302;2023-11-21T01:35:50;10.9;;;5.7;;
44126;SDS011;29786;50.798;7.302;2023-11-21T01:36:50;7.6;;;5.5;;
44126;SDS011;29786;50.798;7.302;2023-11-21T01:37:50;6;;;4.6;;
44126;SDS011;29786;50.798;7.302;2023-11-21T01:38:50;7.3;;;5.1;;
44126;SDS011;29786;50.798;7.302;2023-11-21T01:39:50;6.2;;;5.1;;
44126;SDS011;29786;50.798;7.302;2023-11-21T01:40:50;7.8;;;5.4;;
44126;SDS011;29786;50.798;7.302;2023-11-21T01:41:50;7.6;;;5.1;;
44126;SDS011;29786;50.798;7.302;2023-11-21T01:42:50;7.6;;;5.6;;
44126;SDS011;29786;50.798;7.302;2023-11-21T01:43:50;6.7;;;5.4;;
44126;SDS011;29786;50.798;7.302;2023-11-21T01:44:50;8.5;;;5.6;;
44126;SDS011;29786;50.798;7.302;2023-11-21T01:45:50;6.7;;;5.3;;
44126;SDS011;29786;50.798;7.302;2023-11-21T01:46:50;7.1;;;4.9;;
44126;SDS011;29786;50.798;7.302;2023-11-21T01:47:50;6.8;;;4.4;;
44126;SDS011;29786;50.798;7.302;2023-11-21T01:48:50;6.8;;;4.7;;
44126;SDS011;29786;50.798;7.302;2023-11-21T01:49:50;6.8;;;5.3;;
44126;SDS011;29786;50.798;7.302;2023-11-21T01:50:50;7.8;;;5;;
44126;SDS011;29786;50.798;7.302;2023-11-21T01:51:50;7.8;;;5.3;;
44126;SDS011;29786;50.798;7.302;2023-11-21T01:52:50;8;;;5.4;;
44126;SDS011;29786;50.798;7.302;2023-11-21T01:53:50;8.8;;;5.5;;
44126;SDS011;29786;50.798;7.302;2023-11-21T01:54:50;6.7;;;5.1;;
44126;SDS011;29786;50.798;7.302;2023-11-21T01:55:50;8.2;;;5.7;;
44126;SDS011;29786;50.798;7.302;2023-11-21T01:56:50;8.7;;;5.8;;
44126;SDS011;29786;50.798;7.302;2023-11-21T01:57:50;8.9;;;5.6;;
44126;SDS011;29786;50.798;7.302;2023-11-21T01:58:50;6.8;;;5.6;;
44126;SDS011;29786;50.798;7.302;2023-11-21T01:59:50;8.6;;;5.5;;
44126;SDS011;29786;50.798;7.302;2023-11-21T02:00:50;6.9;;;5.2;;
44126;SDS011;29786;50.798;7.302;2023-11-21T02:01:50;9.5;;;6;;
44126;SDS011;29786;50.798;7.302;2023-11-21T02:02:50;9.5;;;5.7;;
44126;SDS011;29786;50.798;7.302;2023-11-21T02:03:50;8.3;;;5.6;;
44126;SDS011;29786;50.798;7.302;2023-11-21T02:04:50;6.2;;;5.2;;
44126;SDS011;29786;50.798;7.302;2023-11-21T02:05:50;9.5;;;5.8;;
44126;SDS011;29786;50.798;7.302;2023-11-21T02:06:50;8.5;;;5.7;;
44126;SDS011;29786;50.798;7.302;2023-11-21T02:07:50;9.7;;;6.2;;
44126;SDS011;29786;50.798;7.302;2023-11-21T02:08:50;10.5;;;6.4;;
44126;SDS011;29786;50.798;7.302;2023-11-21T02:09:50;9;;;6.1;;
44126;SDS011;29786;50.798;7.302;2023-11-21T02:10:50;12.4;;;6.1;;
44126;SDS011;29786;50.798;7.302;2023-11-21T02:11:50;8.6;;;5.5;;
44126;SDS011;29786;50.798;7.302;2023-11-21T02:12:50;8.1;;;6.2;;
44126;SDS011;29786;50.798;7.302;2023-11-21T02:13:50;8;;;5.7;;
44126;SDS011;29786;50.798;7.302;2023-11-21T02:14:50;9.4;;;6.2;;
44126;SDS011;29786;50.798;7.302;2023-11-21T02:15:50;9.8;;;6.1;;
44126;SDS011;29786;50.798;7.302;2023-11-21T02:16:50;8.2;;;5.8;;
44126;SDS011;29786;50.798;7.302;2023-11-21T02:17:50;9.6;;;5.9;;
44126;SDS011;29786;50.798;7.302;2023-11-21T02:18:50;8;;;5.5;;
44126;SDS011;29786;50.798;7.302;2023-11-21T02:19:50;9.6;;;5.8;;
44126;SDS011;29786;50.798;7.302;2023-11-21T02:20:50;8.7;;;5.6;;
44126;SDS011;29786;50.798;7.302;2023-11-21T02:21:50;7.5;;;5.2;;
44126;SDS011;29786;50.798;7.302;2023-11-21T02:22:50;6.4;;;5.3;;
44126;SDS011;29786;50.798;7.302;2023-11-21T02:23:50;9.2;;;5.9;;
44126;SDS011;29786;50.798;7.302;2023-11-21T02:24:50;10.3;;;6.7;;
44126;SDS011;29786;50.798;7.302;2023-11-21T02:25:50;10.2;;;6.2;;
44126;SDS011;29786;50.798;7.302;2023-11-21T02:26:50;10.6;;;7;;
44126;SDS011;29786;50.798;7.302;2023-11-21T02:27:50;9.8;;;7;;
44126;SDS011;29786;50.798;7.302;2023-11-21T02:28:50;10.6;;;7.5;;
44126;SDS011;29786;50.798;7.302;2023-11-21T02:29:50;11.4;;;6.5;;
44126;SDS011;29786;50.798;7.302;2023-11-21T02:30:50;9.3;;;6.1;;
44126;SDS011;29786;50.798;7.302;2023-11-21T02:31:52;8.9;;;5.8;;
44126;SDS011;29786;50.798;7.302;2023-11-21T02:32:50;9.8;;;6;;
44126;SDS011;29786;50.798;7.302;2023-11-21T02:33:50;12;;;7;;
44126;SDS011;29786;50.798;7.302;2023-11-21T02:34:50;13.8;;;7.1;;
44126;SDS011;29786;50.798;7.302;2023-11-21T02:35:50;10.9;;;7;;
44126;SDS011;29786;50.798;7.302;2023-11-21T02:36:50;8.6;;;5.9;;
44126;SDS011;29786;50.798;7.302;2023-11-21T02:37:50;9.1;;;6.4;;
44126;SDS011;29786;50.798;7.302;2023-11-21T02:38:50;8.3;;;6.2;;
44126;SDS011;29786;50.798;7.302;2023-11-21T02:39:50;8.4;;;6.1;;
44126;SDS011;29786;50.798;7.302;2023-11-21T02:40:50;7.3;;;5.6;;
44126;SDS011;29786;50.798;7.302;2023-11-21T02:41:50;13;;;7.1;;
44126;SDS011;29786;50.798;7.302;2023-11-21T02:42:50;9.4;;;7.1;;
44126;SDS011;29786;50.798;7.302;2023-11-21T02:43:50;10.7;;;7.4;;
44126;SDS011;29786;50.798;7.302;2023-11-21T02:45:00;10.9;;;7.9;;
44126;SDS011;29786;50.798;7.302;2023-11-21T02:45:53;10.2;;;6.7;;
44126;SDS011;29786;50.798;7.302;2023-11-21T02:46:50;10.8;;;7.5;;
44126;SDS011;29786;50.798;7.302;2023-11-21T02:47:50;11.1;;;7.4;;
44126;SDS011;29786;50.798;7.302;2023-11-21T02:48:50;11.2;;;7.2;;
44126;SDS011;29786;50.798;7.302;2023-11-21T02:49:50;12;;;7.5;;
44126;SDS011;29786;50.798;7.302;2023-11-21T02:50:50;9.6;;;6.7;;
44126;SDS011;29786;50.798;7.302;2023-11-21T02:51:50;11.5;;;7.4;;
44126;SDS011;29786;50.798;7.302;2023-11-21T02:52:50;12.6;;;7.1;;
44126;SDS011;29786;50.798;7.302;2023-11-21T02:53:50;13.6;;;8.2;;
44126;SDS011;29786;50.798;7.302;2023-11-21T02:54:50;14.2;;;8.8;;
44126;SDS011;29786;50.798;7.302;2023-11-21T02:55:50;17.6;;;9;;
44126;SDS011;29786;50.798;7.302;2023-11-21T02:56:50;15.3;;;8.8;;
44126;SDS011;29786;50.798;7.302;2023-11-21T02:57:50;14;;;8.5;;
44126;SDS011;29786;50.798;7.302;2023-11-21T02:58:50;12.5;;;9.3;;
44126;SDS011;29786;50.798;7.302;2023-11-21T02:59:50;11.3;;;7.9;;
44126;SDS011;29786;50.798;7.302;2023-11-21T03:00:50;9.5;;;7.5;;
44126;SDS011;29786;50.798;7.302;2023-11-21T03:01:51;11.1;;;7.5;;
44126;SDS011;29786;50.798;7.302;2023-11-21T03:02:50;11.3;;;8.2;;
44126;SDS011;29786;50.798;7.302;2023-11-21T03:03:50;10.2;;;6.9;;
44126;SDS011;29786;50.798;7.302;2023-11-21T03:04:50;12.2;;;7.7;;
44126;SDS011;29786;50.798;7.302;2023-11-21T03:05:50;10.3;;;8;;
44126;SDS011;29786;50.798;7.302;2023-11-21T03:06:50;11.2;;;7.8;;
44126;SDS011;29786;50.798;7.302;2023-11-21T03:07:50;11.2;;;8.2;;
44126;SDS011;29786;50.798;7.302;2023-11-21T03:08:50;10.9;;;8.1;;
44126;SDS011;29786;50.798;7.302;2023-11-21T03:09:50;9.9;;;8;;
44126;SDS011;29786;50.798;7.302;2023-11-21T03:10:50;12.2;;;8;;
44126;SDS011;29786;50.798;7.302;2023-11-21T03:11:50;13.4;;;7.7;;
44126;SDS011;29786;50.798;7.302;2023-11-21T03:12:50;10.5;;;7.9;;
44126;SDS011;29786;50.798;7.302;2023-11-21T03:13:50;10.8;;;7.8;;
44126;SDS011;29786;50.798;7.302;2023-11-21T03:14:50;12.6;;;8.6;;
44126;SDS011;29786;50.798;7.302;2023-11-21T03:15:50;15.4;;;8.7;;
44126;SDS011;29786;50.798;7.302;2023-11-21T03:16:50;12;;;8.8;;
44126;SDS011;29786;50.798;7.302;2023-11-21T03:17:50;14.5;;;8.8;;
44126;SDS011;29786;50.798;7.302;2023-11-21T03:18:50;15;;;9.2;;
44126;SDS011;29786;50.798;7.302;2023-11-21T03:19:50;13;;;7.7;;
44126;SDS011;29786;50.798;7.302;2023-11-21T03:20:51;11;;;7.6;;
44126;SDS011;29786;50.798;7.302;2023-11-21T03:21:50;12.7;;;8.7;;
44126;SDS011;29786;50.798;7.302;2023-11-21T03:22:50;14.7;;;8.7;;
44126;SDS011;29786;50.798;7.302;2023-11-21T03:23:50;11.2;;;7.8;;
44126;SDS011;29786;50.798;7.302;2023-11-21T03:24:50;12;;;8.5;;
44126;SDS011;29786;50.798;7.302;2023-11-21T03:25:50;16;;;8.8;;
44126;SDS011;29786;50.798;7.302;2023-11-21T03:26:50;13.5;;;8.6;;
44126;SDS011;29786;50.798;7.302;2023-11-21T03:27:50;13.1;;;8.6;;
44126;SDS011;29786;50.798;7.302;2023-11-21T03:28:50;13.4;;;8.4;;
44126;SDS011;29786;50.798;7.302;2023-11-21T03:29:50;13.2;;;9;;
44126;SDS011;29786;50.798;7.302;2023-11-21T03:30:50;13.3;;;8.8;;
44126;SDS011;29786;50.798;7.302;2023-11-21T03:31:50;14.1;;;9.2;;
44126;SDS011;29786;50.798;7.302;2023-11-21T03:32:50;16.5;;;10.3;;
44126;SDS011;29786;50.798;7.302;2023-11-21T03:33:50;19.4;;;11.4;;
44126;SDS011;29786;50.798;7.302;2023-11-21T03:34:54;21.1;;;13.1;;
44126;SDS011;29786;50.798;7.302;2023-11-21T03:35:50;16.8;;;11.9;;
44126;SDS011;29786;50.798;7.302;2023-11-21T03:36:50;21.1;;;12.2;;
44126;SDS011;29786;50.798;7.302;2023-11-21T03:37:50;22;;;14.3;;
44126;SDS011;29786;50.798;7.302;2023-11-21T03:38:50;23.7;;;13.7;;
44126;SDS011;29786;50.798;7.302;2023-11-21T03:39:50;20.1;;;11.8;;
44126;SDS011;29786;50.798;7.302;2023-11-21T03:40:50;18.3;;;11.9;;
44126;SDS011;29786;50.798;7.302;2023-11-21T03:41:50;16.8;;;11.2;;
44126;SDS011;29786;50.798;7.302;2023-11-21T03:42:50;19.6;;;11.1;;
44126;SDS011;29786;50.798;7.302;2023-11-21T03:43:50;16.8;;;10.5;;
44126;SDS011;29786;50.798;7.302;2023-11-21T03:44:50;17.9;;;11.5;;
44126;SDS011;29786;50.798;7.302;2023-11-21T03:45:50;15.9;;;10.7;;
44126;SDS011;29786;50.798;7.302;2023-11-21T03:46:50;18.6;;;11.9;;
44126;SDS011;29786;50.798;7.302;2023-11-21T03:47:50;15.7;;;11.3;;
44126;SDS011;29786;50.798;7.302;2023-11-21T03:48:50;14.5;;;10.7;;
44126;SDS011;29786;50.798;7.302;2023-11-21T03:49:50;16.6;;;11.1;;
44126;SDS011;29786;50.798;7.302;2023-11-21T03:50:50;21.2;;;12.4;;
44126;SDS011;29786;50.798;7.302;2023-11-21T03:51:50;19.9;;;12.3;;
44126;SDS011;29786;50.798;7.302;2023-11-21T03:52:50;27.4;;;14.5;;
44126;SDS011;29786;50.798;7.302;2023-11-21T03:53:50;25;;;15.6;;
44126;SDS011;29786;50.798;7.302;2023-11-21T03:54:50;23.5;;;14.5;;
44126;SDS011;29786;50.798;7.302;2023-11-21T03:55:50;20;;;13.3;;
44126;SDS011;29786;50.798;7.302;2023-11-21T03:56:50;22.2;;;13.9;;
44126;SDS011;29786;50.798;7.302;2023-11-21T03:57:50;23.2;;;15;;
44126;SDS011;29786;50.798;7.302;2023-11-21T03:58:50;21.5;;;14;;
44126;SDS011;29786;50.798;7.302;2023-11-21T04:00:50;23.8;;;13.7;;
44126;SDS011;29786;50.798;7.302;2023-11-21T04:01:50;28.4;;;14.8;;
44126;SDS011;29786;50.798;7.302;2023-11-21T04:02:50;25.7;;;14.3;;
44126;SDS011;29786;50.798;7.302;2023-11-21T04:03:50;25.8;;;13;;
44126;SDS011;29786;50.798;7.302;2023-11-21T04:04:50;27.7;;;13.5;;
44126;SDS011;29786;50.798;7.302;2023-11-21T04:05:50;24.2;;;13.8;;
44126;SDS011;29786;50.798;7.302;2023-11-21T04:06:50;26;;;13.6;;
44126;SDS011;29786;50.798;7.302;2023-11-21T04:07:50;27;;;14.6;;
44126;SDS011;29786;50.798;7.302;2023-11-21T04:08:50;21.7;;;13.7;;
44126;SDS011;29786;50.798;7.302;2023-11-21T04:09:50;23.4;;;13.7;;
44126;SDS011;29786;50.798;7.302;2023-11-21T04:10:50;26.9;;;14.5;;
44126;SDS011;29786;50.798;7.302;2023-11-21T04:11:50;27.2;;;15.4;;
44126;SDS011;29786;50.798;7.302;2023-11-21T04:12:50;22.4;;;14;;
44126;SDS011;29786;50.798;7.302;2023-11-21T04:13:50;23.7;;;14.1;;
44126;SDS011;29786;50.798;7.302;2023-11-21T04:14:50;25.7;;;15.5;;
44126;SDS011;29786;50.798;7.302;2023-11-21T04:15:50;27.4;;;14.4;;
44126;SDS011;29786;50.798;7.302;2023-11-21T04:16:50;25.6;;;14.5;;
44126;SDS011;29786;50.798;7.302;2023-11-21T04:17:50;23.9;;;14.3;;
44126;SDS011;29786;50.798;7.302;2023-11-21T04:18:50;24.3;;;13.9;;
44126;SDS011;29786;50.798;7.302;2023-11-21T04:19:50;28.9;;;14.8;;
44126;SDS011;29786;50.798;7.302;2023-11-21T04:20:50;21.7;;;14.6;;
44126;SDS011;29786;50.798;7.302;2023-11-21T04:21:50;26.4;;;15.4;;
44126;SDS011;29786;50.798;7.302;2023-11-21T04:22:50;27.9;;;15.6;;
44126;SDS011;29786;50.798;7.302;2023-11-21T04:23:50;27.2;;;15.7;;
44126;SDS011;29786;50.798;7.302;2023-11-21T04:24:50;24.7;;;14.8;;
44126;SDS011;29786;50.798;7.302;2023-11-21T04:25:50;25.1;;;15.9;;
44126;SDS011;29786;50.798;7.302;2023-11-21T04:26:50;24.9;;;15.3;;
44126;SDS011;29786;50.798;7.302;2023-11-21T04:27:50;26.8;;;15.6;;
44126;SDS011;29786;50.798;7.302;2023-11-21T04:28:50;25;;;15.5;;
44126;SDS011;29786;50.798;7.302;2023-11-21T04:29:50;28;;;17.2;;
44126;SDS011;29786;50.798;7.302;2023-11-21T04:30:50;31.1;;;17.6;;
44126;SDS011;29786;50.798;7.302;2023-11-21T04:31:50;29.9;;;17.2;;
44126;SDS011;29786;50.798;7.302;2023-11-21T04:32:50;30.4;;;17.5;;
44126;SDS011;29786;50.798;7.302;2023-11-21T04:33:50;32;;;17.9;;
44126;SDS011;29786;50.798;7.302;2023-11-21T04:36:50;42.6;;;20.6;;
44126;SDS011;29786;50.798;7.302;2023-11-21T04:37:50;34;;;20;;
44126;SDS011;29786;50.798;7.302;2023-11-21T04:38:50;33.4;;;18.5;;
44126;SDS011;29786;50.798;7.302;2023-11-21T04:39:50;42.2;;;22.7;;
44126;SDS011;29786;50.798;7.302;2023-11-21T04:40:50;43;;;21.6;;
44126;SDS011;29786;50.798;7.302;2023-11-21T04:41:50;41.5;;;22.8;;
44126;SDS011;29786;50.798;7.302;2023-11-21T04:42:50;46.3;;;22.9;;
44126;SDS011;29786;50.798;7.302;2023-11-21T04:43:50;41;;;23.2;;
44126;SDS011;29786;50.798;7.302;2023-11-21T04:44:50;43.2;;;24;;
44126;SDS011;29786;50.798;7.302;2023-11-21T04:45:50;41.8;;;22;;
44126;SDS011;29786;50.798;7.302;2023-11-21T04:46:50;40.5;;;22.7;;
44126;SDS011;29786;50.798;7.302;2023-11-21T04:47:50;44.9;;;22.1;;
44126;SDS011;29786;50.798;7.302;2023-11-21T04:48:50;36.8;;;20.8;;
44126;SDS011;29786;50.798;7.302;2023-11-21T04:49:50;39.7;;;22.3;;
44126;SDS011;29786;50.798;7.302;2023-11-21T04:50:50;37.8;;;20.6;;
44126;SDS011;29786;50.798;7.302;2023-11-21T04:51:50;41;;;22.9;;
44126;SDS011;29786;50.798;7.302;2023-11-21T04:52:50;44.8;;;23.2;;
44126;SDS011;29786;50.798;7.302;2023-11-21T04:53:50;45.5;;;23.2;;
44126;SDS011;29786;50.798;7.302;2023-11-21T04:54:50;42.1;;;22.3;;
44126;SDS011;29786;50.798;7.302;2023-11-21T04:55:50;42.8;;;22.2;;
44126;SDS011;29786;50.798;7.302;2023-11-21T04:56:50;32.7;;;19.4;;
44126;SDS011;29786;50.798;7.302;2023-11-21T04:57:50;43.7;;;23.3;;
44126;SDS011;29786;50.798;7.302;2023-11-21T04:58:50;37.6;;;22.1;;
44126;SDS011;29786;50.798;7.302;2023-11-21T04:59:50;46.3;;;23.8;;
44126;SDS011;29786;50.798;7.302;2023-11-21T05:00:50;41.5;;;23.5;;
44126;SDS011;29786;50.798;7.302;2023-11-21T05:01:50;39.9;;;22.7;;
44126;SDS011;29786;50.798;7.302;2023-11-21T05:02:50;42.2;;;24.2;;
44126;SDS011;29786;50.798;7.302;2023-11-21T05:03:50;43.4;;;23.6;;
44126;SDS011;29786;50.798;7.302;2023-11-21T05:04:50;42.6;;;22.7;;
44126;SDS011;29786;50.798;7.302;2023-11-21T05:05:50;40;;;21.4;;
44126;SDS011;29786;50.798;7.302;2023-11-21T05:08:50;43.2;;;24;;
44126;SDS011;29786;50.798;7.302;2023-11-21T05:09:50;43.6;;;23.4;;
44126;SDS011;29786;50.798;7.302;2023-11-21T05:10:50;45.7;;;24.4;;
44126;SDS011;29786;50.798;7.302;2023-11-21T05:11:50;47;;;24.9;;
44126;SDS011;29786;50.798;7.302;2023-11-21T05:12:50;46.9;;;25.1;;
44126;SDS011;29786;50.798;7.302;2023-11-21T05:13:50;43;;;23.9;;
44126;SDS011;29786;50.798;7.302;2023-11-21T05:14:50;49.5;;;25.5;;
44126;SDS011;29786;50.798;7.302;2023-11-21T05:15:50;44.6;;;24;;
44126;SDS011;29786;50.798;7.302;2023-11-21T05:16:50;43.5;;;23.8;;
44126;SDS011;29786;50.798;7.302;2023-11-21T05:17:50;40.3;;;23.3;;
44126;SDS011;29786;50.798;7.302;2023-11-21T05:18:50;38;;;22.3;;
44126;SDS011;29786;50.798;7.302;2023-11-21T05:19:50;36.4;;;21.3;;
44126;SDS011;29786;50.798;7.302;2023-11-21T05:20:50;34;;;20.2;;
44126;SDS011;29786;50.798;7.302;2023-11-21T05:21:50;34.9;;;20.1;;
44126;SDS011;29786;50.798;7.302;2023-11-21T05:22:50;36.4;;;20.4;;
44126;SDS011;29786;50.798;7.302;2023-11-21T05:23:50;38.1;;;22.2;;
44126;SDS011;29786;50.798;7.302;2023-11-21T05:24:50;41.8;;;22.8;;
44126;SDS011;29786;50.798;7.302;2023-11-21T05:25:50;31.5;;;18.3;;
44126;SDS011;29786;50.798;7.302;2023-11-21T05:26:50;42.6;;;22.7;;
44126;SDS011;29786;50.798;7.302;2023-11-21T05:27:50;37.9;;;20.8;;
44126;SDS011;29786;50.798;7.302;2023-11-21T05:28:50;42.7;;;23.1;;
44126;SDS011;29786;50.798;7.302;2023-11-21T05:29:50;44.2;;;21.7;;
44126;SDS011;29786;50.798;7.302;2023-11-21T05:30:50;42.9;;;21.9;;
44126;SDS011;29786;50.798;7.302;2023-11-21T05:31:50;41.7;;;22.8;;
44126;SDS011;29786;50.798;7.302;2023-11-21T05:32:50;42.9;;;22.6;;
44126;SDS011;29786;50.798;7.302;2023-11-21T05:33:50;41.9;;;23.3;;
44126;SDS011;29786;50.798;7.302;2023-11-21T05:34:50;40.8;;;23;;
44126;SDS011;29786;50.798;7.302;2023-11-21T05:35:50;43.7;;;23.4;;
44126;SDS011;29786;50.798;7.302;2023-11-21T05:36:50;48.7;;;23.7;;
44126;SDS011;29786;50.798;7.302;2023-11-21T05:37:50;46.4;;;22.7;;
44126;SDS011;29786;50.798;7.302;2023-11-21T05:38:50;47.2;;;22.3;;
44126;SDS011;29786;50.798;7.302;2023-11-21T05:39:50;38.3;;;21.5;;
44126;SDS011;29786;50.798;7.302;2023-11-21T05:40:50;38.5;;;21;;
44126;SDS011;29786;50.798;7.302;2023-11-21T05:41:50;39.9;;;21.1;;
44126;SDS011;29786;50.798;7.302;2023-11-21T05:42:50;33.6;;;19.8;;
44126;SDS011;29786;50.798;7.302;2023-11-21T05:43:50;27.5;;;17.5;;
44126;SDS011;29786;50.798;7.302;2023-11-21T05:44:50;33;;;18.3;;
44126;SDS011;29786;50.798;7.302;2023-11-21T05:45:50;32.6;;;17.9;;
44126;SDS011;29786;50.798;7.302;2023-11-21T05:46:50;37.5;;;21.8;;
44126;SDS011;29786;50.798;7.302;2023-11-21T05:47:50;44.2;;;20.8;;
44126;SDS011;29786;50.798;7.302;2023-11-21T05:48:50;39.6;;;21;;
44126;SDS011;29786;50.798;7.302;2023-11-21T05:49:50;37;;;20.8;;
44126;SDS011;29786;50.798;7.302;2023-11-21T05:50:50;32.8;;;19.1;;
44126;SDS011;29786;50.798;7.302;2023-11-21T05:51:50;33.8;;;19.4;;
44126;SDS011;29786;50.798;7.302;2023-11-21T05:52:50;31.8;;;18.6;;
44126;SDS011;29786;50.798;7.302;2023-11-21T05:53:50;30.9;;;17.4;;
44126;SDS011;29786;50.798;7.302;2023-11-21T05:54:50;33.6;;;19.4;;
44126;SDS011;29786;50.798;7.302;2023-11-21T05:55:50;35;;;19;;
44126;SDS011;29786;50.798;7.302;2023-11-21T05:56:50;40.3;;;20.1;;
44126;SDS011;29786;50.798;7.302;2023-11-21T05:57:50;43.1;;;20.9;;
44126;SDS011;29786;50.798;7.302;2023-11-21T05:58:50;35.8;;;20.8;;
44126;SDS011;29786;50.798;7.302;2023-11-21T05:59:50;38.5;;;20.2;;
44126;SDS011;29786;50.798;7.302;2023-11-21T06:00:50;38.4;;;19.4;;
44126;SDS011;29786;50.798;7.302;2023-11-21T06:01:50;47.7;;;18.3;;
44126;SDS011;29786;50.798;7.302;2023-11-21T06:02:50;51.2;;;20.2;;
44126;SDS011;29786;50.798;7.302;2023-11-21T06:03:50;49.7;;;19.7;;
44126;SDS011;29786;50.798;7.302;2023-11-21T06:04:50;115.4;;;20.7;;
44126;SDS011;29786;50.798;7.302;2023-11-21T06:05:50;89.9;;;21.4;;
44126;SDS011;29786;50.798;7.302;2023-11-21T06:06:50;38.7;;;18.9;;
44126;SDS011;29786;50.798;7.302;2023-11-21T06:07:50;48.2;;;20.2;;
44126;SDS011;29786;50.798;7.302;2023-11-21T06:08:50;133;;;21.8;;
44126;SDS011;29786;50.798;7.302;2023-11-21T06:09:50;385.9;;;31.5;;
44126;SDS011;29786;50.798;7.302;2023-11-21T06:10:50;383.3;;;30.1;;
44126;SDS011;29786;50.798;7.302;2023-11-21T06:11:50;478.3;;;35.6;;
44126;SDS011;29786;50.798;7.302;2023-11-21T06:12:50;355.6;;;30.3;;
44126;SDS011;29786;50.798;7.302;2023-11-21T06:13:50;398.7;;;33.3;;
44126;SDS011;29786;50.798;7.302;2023-11-21T06:14:50;335.4;;;31.3;;